sensor_id;sensor_type;location;lat;lon;timestamp;pressure;altitude;pressure_sealevel;temperature;humidity
72857;BME280;62742;52.136;4.500;2022-09-25T00:01:08;101779.88;;;10.33;82.31
72857;BME280;62742;52.136;4.500;2022-09-25T00:03:35;101789.47;;;10.31;82.25
72857;BME280;62742;52.136;4.500;2022-09-25T00:06:11;101787.75;;;10.28;81.92
72857;BME280;62742;52.136;4.500;2022-09-25T00:08:42;101791.22;;;10.24;81.88
72857;BME280;62742;52.136;4.500;2022-09-25T00:11:23;101800.88;;;10.27;81.79
72857;BME280;62742;52.136;4.500;2022-09-25T00:13:59;101792.09;;;10.20;82.00
72857;BME280;62742;52.136;4.500;2022-09-25T00:16:29;101797.34;;;10.17;82.37
72857;BME280;62742;52.136;4.500;2022-09-25T00:18:58;101794.69;;;10.13;82.37
72857;BME280;62742;52.136;4.500;2022-09-25T00:21:43;101802.56;;;10.11;82.56
72857;BME280;62742;52.136;4.500;2022-09-25T00:24:11;101799.09;;;10.15;82.68
72857;BME280;62742;52.136;4.500;2022-09-25T00:26:40;101795.59;;;10.11;82.66
72857;BME280;62742;52.136;4.500;2022-09-25T00:29:15;101794.72;;;10.08;82.34
72857;BME280;62742;52.136;4.500;2022-09-25T00:31:43;101795.56;;;10.07;82.24
72857;BME280;62742;52.136;4.500;2022-09-25T00:34:10;101793.81;;;10.07;82.39
72857;BME280;62742;52.136;4.500;2022-09-25T00:36:36;101789.44;;;10.05;82.65
72857;BME280;62742;52.136;4.500;2022-09-25T00:39:04;101795.59;;;10.15;82.44
72857;BME280;62742;52.136;4.500;2022-09-25T00:41:31;101791.22;;;10.17;82.22
72857;BME280;62742;52.136;4.500;2022-09-25T00:44:00;101797.34;;;10.06;82.41
72857;BME280;62742;52.136;4.500;2022-09-25T00:46:41;101790.34;;;10.11;82.04
72857;BME280;62742;52.136;4.500;2022-09-25T00:49:15;101785.97;;;10.12;83.03
72857;BME280;62742;52.136;4.500;2022-09-25T00:51:54;101786.81;;;10.02;83.24
72857;BME280;62742;52.136;4.500;2022-09-25T00:54:38;101788.53;;;9.92;83.26
72857;BME280;62742;52.136;4.500;2022-09-25T00:57:14;101792.03;;;9.88;83.66
72857;BME280;62742;52.136;4.500;2022-09-25T00:59:50;101788.53;;;9.90;83.69
72857;BME280;62742;52.136;4.500;2022-09-25T01:02:29;101782.44;;;9.93;83.93
72857;BME280;62742;52.136;4.500;2022-09-25T01:05:03;101781.53;;;9.86;83.64
72857;BME280;62742;52.136;4.500;2022-09-25T01:07:33;101785.88;;;9.81;83.86
72857;BME280;62742;52.136;4.500;2022-09-25T01:10:03;101784.13;;;9.74;83.74
72857;BME280;62742;52.136;4.500;2022-09-25T01:12:38;101791.97;;;9.69;83.68
72857;BME280;62742;52.136;4.500;2022-09-25T01:15:10;101791.13;;;9.72;83.41
72857;BME280;62742;52.136;4.500;2022-09-25T01:21:59;101791.09;;;9.64;83.98
72857;BME280;62742;52.136;4.500;2022-09-25T01:24:43;101796.31;;;9.60;84.18
72857;BME280;62742;52.136;4.500;2022-09-25T01:27:45;101798.94;;;9.57;84.11
72857;BME280;62742;52.136;4.500;2022-09-25T01:30:25;101798.94;;;9.55;83.92
72857;BME280;62742;52.136;4.500;2022-09-25T01:33:02;101796.31;;;9.63;83.63
72857;BME280;62742;52.136;4.500;2022-09-25T01:35:56;101798.94;;;9.60;82.90
72857;BME280;62742;52.136;4.500;2022-09-25T01:38:35;101790.16;;;9.56;83.51
72857;BME280;62742;52.136;4.500;2022-09-25T01:44:11;101791.09;;;9.66;83.78
72857;BME280;62742;52.136;4.500;2022-09-25T01:46:46;101785.81;;;9.63;83.80
72857;BME280;62742;52.136;4.500;2022-09-25T01:49:21;101784.09;;;9.62;83.95
72857;BME280;62742;52.136;4.500;2022-09-25T01:52:07;101782.34;;;9.70;84.54
72857;BME280;62742;52.136;4.500;2022-09-25T01:54:47;101784.09;;;9.68;85.03
72857;BME280;62742;52.136;4.500;2022-09-25T01:57:31;101788.47;;;9.66;84.60
72857;BME280;62742;52.136;4.500;2022-09-25T02:00:17;101786.72;;;9.68;85.61
72857;BME280;62742;52.136;4.500;2022-09-25T02:02:56;101792.00;;;9.76;85.60
72857;BME280;62742;52.136;4.500;2022-09-25T02:05:42;101788.50;;;9.78;85.15
72857;BME280;62742;52.136;4.500;2022-09-25T02:08:20;101779.78;;;9.81;85.08
72857;BME280;62742;52.136;4.500;2022-09-25T02:10:57;101778.91;;;9.86;85.09
72857;BME280;62742;52.136;4.500;2022-09-25T02:13:35;101781.53;;;9.89;85.82
72857;BME280;62742;52.136;4.500;2022-09-25T02:16:12;101785.06;;;9.93;85.92
72857;BME280;62742;52.136;4.500;2022-09-25T02:18:44;101782.44;;;9.95;85.69
72857;BME280;62742;52.136;4.500;2022-09-25T02:21:48;101780.69;;;10.00;86.28
72857;BME280;62742;52.136;4.500;2022-09-25T02:24:23;101778.94;;;10.05;86.57
72857;BME280;62742;52.136;4.500;2022-09-25T02:26:55;101778.97;;;10.08;86.79
72857;BME280;62742;52.136;4.500;2022-09-25T02:29:22;101782.47;;;10.10;86.50
72857;BME280;62742;52.136;4.500;2022-09-25T02:32:04;101783.31;;;10.09;86.43
72857;BME280;62742;52.136;4.500;2022-09-25T02:34:35;101788.56;;;10.09;85.97
72857;BME280;62742;52.136;4.500;2022-09-25T02:37:02;101795.56;;;10.16;86.46
72857;BME280;62742;52.136;4.500;2022-09-25T02:39:34;101791.22;;;10.24;86.62
72857;BME280;62742;52.136;4.500;2022-09-25T02:45:23;101797.41;;;10.50;86.34
72857;BME280;62742;52.136;4.500;2022-09-25T02:53:42;101794.75;;;10.60;86.54
72857;BME280;62742;52.136;4.500;2022-09-25T02:59:03;101802.66;;;10.66;86.79
72857;BME280;62742;52.136;4.500;2022-09-25T03:01:36;101810.53;;;10.88;84.96
72857;BME280;62742;52.136;4.500;2022-09-25T03:04:08;101808.75;;;10.96;83.36
72857;BME280;62742;52.136;4.500;2022-09-25T03:06:37;101808.75;;;10.98;84.40
72857;BME280;62742;52.136;4.500;2022-09-25T03:09:05;101797.34;;;11.10;83.86
72857;BME280;62742;52.136;4.500;2022-09-25T03:11:36;101787.69;;;11.12;84.00
72857;BME280;62742;52.136;4.500;2022-09-25T03:14:07;101779.78;;;11.24;83.24
72857;BME280;62742;52.136;4.500;2022-09-25T03:16:51;101790.34;;;11.06;84.31
72857;BME280;62742;52.136;4.500;2022-09-25T03:19:21;101792.09;;;10.94;85.35
72857;BME280;62742;52.136;4.500;2022-09-25T03:21:51;101785.97;;;10.89;85.73
72857;BME280;62742;52.136;4.500;2022-09-25T03:24:19;101782.47;;;10.87;85.72
72857;BME280;62742;52.136;4.500;2022-09-25T03:26:46;101784.25;;;10.76;86.02
72857;BME280;62742;52.136;4.500;2022-09-25T03:29:13;101787.75;;;10.75;85.99
72857;BME280;62742;52.136;4.500;2022-09-25T03:31:42;101784.28;;;10.70;85.90
72857;BME280;62742;52.136;4.500;2022-09-25T03:34:11;101786.88;;;10.59;85.95
72857;BME280;62742;52.136;4.500;2022-09-25T03:36:40;101782.53;;;10.59;85.78
72857;BME280;62742;52.136;4.500;2022-09-25T03:39:07;101786.91;;;10.50;85.17
72857;BME280;62742;52.136;4.500;2022-09-25T03:41:36;101784.28;;;10.39;85.49
72857;BME280;62742;52.136;4.500;2022-09-25T03:44:03;101779.00;;;10.36;85.21
72857;BME280;62742;52.136;4.500;2022-09-25T03:46:34;101771.97;;;10.30;84.94
72857;BME280;62742;52.136;4.500;2022-09-25T03:49:02;101771.97;;;10.21;84.23
72857;BME280;62742;52.136;4.500;2022-09-25T03:51:30;101763.19;;;10.17;84.41
72857;BME280;62742;52.136;4.500;2022-09-25T03:53:58;101771.97;;;10.13;84.06
72857;BME280;62742;52.136;4.500;2022-09-25T03:56:26;101777.16;;;10.01;83.97
72857;BME280;62742;52.136;4.500;2022-09-25T03:58:55;101776.31;;;9.92;83.99
72857;BME280;62742;52.136;4.500;2022-09-25T04:01:23;101776.28;;;9.86;83.84
72857;BME280;62742;52.136;4.500;2022-09-25T04:03:51;101771.88;;;9.85;83.42
72857;BME280;62742;52.136;4.500;2022-09-25T04:06:20;101776.28;;;9.89;83.45
72857;BME280;62742;52.136;4.500;2022-09-25T04:08:50;101768.41;;;9.89;83.56
72857;BME280;62742;52.136;4.500;2022-09-25T04:11:19;101767.53;;;9.83;83.60
72857;BME280;62742;52.136;4.500;2022-09-25T04:13:47;101762.25;;;9.78;83.62
72857;BME280;62742;52.136;4.500;2022-09-25T04:16:15;101771.88;;;9.76;83.56
72857;BME280;62742;52.136;4.500;2022-09-25T04:18:42;101769.22;;;9.71;83.71
72857;BME280;62742;52.136;4.500;2022-09-25T04:21:11;101763.97;;;9.65;83.28
72857;BME280;62742;52.136;4.500;2022-09-25T04:23:39;101754.34;;;9.66;83.65
72857;BME280;62742;52.136;4.500;2022-09-25T04:26:07;101758.72;;;9.61;83.29
72857;BME280;62742;52.136;4.500;2022-09-25T04:28:34;101749.06;;;9.60;83.38
72857;BME280;62742;52.136;4.500;2022-09-25T04:31:01;101752.59;;;9.59;83.17
72857;BME280;62742;52.136;4.500;2022-09-25T04:33:28;101746.47;;;9.57;83.06
72857;BME280;62742;52.136;4.500;2022-09-25T04:36:14;101751.72;;;9.57;83.07
72857;BME280;62742;52.136;4.500;2022-09-25T04:38:43;101752.56;;;9.55;83.39
72857;BME280;62742;52.136;4.500;2022-09-25T04:41:09;101748.19;;;9.58;83.59
72857;BME280;62742;52.136;4.500;2022-09-25T04:43:37;101755.22;;;9.59;84.06
72857;BME280;62742;52.136;4.500;2022-09-25T04:46:06;101755.19;;;9.55;84.21
72857;BME280;62742;52.136;4.500;2022-09-25T04:48:35;101749.97;;;9.57;83.91
72857;BME280;62742;52.136;4.500;2022-09-25T04:51:03;101747.34;;;9.62;83.79
72857;BME280;62742;52.136;4.500;2022-09-25T04:53:31;101757.84;;;9.65;84.03
72857;BME280;62742;52.136;4.500;2022-09-25T04:56:02;101751.72;;;9.63;84.71
72857;BME280;62742;52.136;4.500;2022-09-25T04:58:30;101750.88;;;9.65;84.82
72857;BME280;62742;52.136;4.500;2022-09-25T05:01:01;101756.09;;;9.64;85.33
72857;BME280;62742;52.136;4.500;2022-09-25T05:03:30;101747.34;;;9.62;85.59
72857;BME280;62742;52.136;4.500;2022-09-25T05:05:56;101752.59;;;9.62;85.35
72857;BME280;62742;52.136;4.500;2022-09-25T05:08:25;101749.06;;;9.60;85.50
72857;BME280;62742;52.136;4.500;2022-09-25T05:10:52;101752.59;;;9.60;85.87
72857;BME280;62742;52.136;4.500;2022-09-25T05:13:19;101744.72;;;9.59;85.12
72857;BME280;62742;52.136;4.500;2022-09-25T05:15:45;101749.06;;;9.60;84.97
72857;BME280;62742;52.136;4.500;2022-09-25T05:18:14;101746.44;;;9.49;84.74
72857;BME280;62742;52.136;4.500;2022-09-25T05:20:43;101753.41;;;9.47;85.14
72857;BME280;62742;52.136;4.500;2022-09-25T05:23:10;101756.91;;;9.46;84.93
72857;BME280;62742;52.136;4.500;2022-09-25T05:25:37;101755.16;;;9.43;84.46
72857;BME280;62742;52.136;4.500;2022-09-25T05:28:03;101749.91;;;9.45;84.81
72857;BME280;62742;52.136;4.500;2022-09-25T05:30:32;101749.03;;;9.47;85.00
72857;BME280;62742;52.136;4.500;2022-09-25T05:33:00;101752.56;;;9.46;84.92
72857;BME280;62742;52.136;4.500;2022-09-25T05:35:29;101753.44;;;9.50;84.62
72857;BME280;62742;52.136;4.500;2022-09-25T05:37:57;101752.56;;;9.55;84.91
72857;BME280;62742;52.136;4.500;2022-09-25T05:40:24;101749.09;;;9.61;85.04
72857;BME280;62742;52.136;4.500;2022-09-25T05:42:51;101750.88;;;9.65;85.65
72857;BME280;62742;52.136;4.500;2022-09-25T05:45:20;101751.75;;;9.69;85.77
72857;BME280;62742;52.136;4.500;2022-09-25T05:47:58;101752.66;;;9.77;85.52
72857;BME280;62742;52.136;4.500;2022-09-25T05:50:27;101750.88;;;9.85;85.30
72857;BME280;62742;52.136;4.500;2022-09-25T05:52:55;101754.41;;;9.93;85.50
72857;BME280;62742;52.136;4.500;2022-09-25T05:55:22;101761.41;;;10.01;85.89
72857;BME280;62742;52.136;4.500;2022-09-25T05:57:49;101765.81;;;10.06;86.27
72857;BME280;62742;52.136;4.500;2022-09-25T06:00:16;101764.09;;;10.15;86.62
72857;BME280;62742;52.136;4.500;2022-09-25T06:02:43;101771.09;;;10.23;86.81
72857;BME280;62742;52.136;4.500;2022-09-25T06:05:09;101768.50;;;10.33;87.20
72857;BME280;62742;52.136;4.500;2022-09-25T06:07:36;101764.97;;;10.38;87.55
72857;BME280;62742;52.136;4.500;2022-09-25T06:10:03;101764.97;;;10.38;88.31
72857;BME280;62742;52.136;4.500;2022-09-25T06:12:30;101757.13;;;10.49;88.02
72857;BME280;62742;52.136;4.500;2022-09-25T06:14:56;101754.47;;;10.64;87.34
72857;BME280;62742;52.136;4.500;2022-09-25T06:17:23;101754.47;;;10.61;87.85
72857;BME280;62742;52.136;4.500;2022-09-25T06:19:49;101754.47;;;10.64;88.33
72857;BME280;62742;52.136;4.500;2022-09-25T06:22:16;101756.22;;;10.65;88.16
72857;BME280;62742;52.136;4.500;2022-09-25T06:24:43;101757.97;;;10.73;88.20
72857;BME280;62742;52.136;4.500;2022-09-25T06:27:10;101766.75;;;10.75;88.54
72857;BME280;62742;52.136;4.500;2022-09-25T06:29:36;101757.94;;;10.80;88.36
72857;BME280;62742;52.136;4.500;2022-09-25T06:32:03;101757.94;;;10.85;88.38
72857;BME280;62742;52.136;4.500;2022-09-25T06:34:29;101759.69;;;10.91;88.56
72857;BME280;62742;52.136;4.500;2022-09-25T06:36:56;101771.94;;;10.96;88.57
72857;BME280;62742;52.136;4.500;2022-09-25T06:39:25;101764.91;;;11.03;88.90
72857;BME280;62742;52.136;4.500;2022-09-25T06:41:52;101763.13;;;11.10;88.80
72857;BME280;62742;52.136;4.500;2022-09-25T06:44:20;101762.28;;;11.14;89.05
72857;BME280;62742;52.136;4.500;2022-09-25T06:46:48;101757.88;;;11.19;89.06
72857;BME280;62742;52.136;4.500;2022-09-25T06:49:19;101768.34;;;11.25;89.11
72857;BME280;62742;52.136;4.500;2022-09-25T06:51:46;101769.22;;;11.35;89.06
72857;BME280;62742;52.136;4.500;2022-09-25T06:54:13;101763.88;;;11.42;89.18
72857;BME280;62742;52.136;4.500;2022-09-25T06:56:39;101763.00;;;11.50;89.49
72857;BME280;62742;52.136;4.500;2022-09-25T06:59:06;101762.09;;;11.55;89.27
72857;BME280;62742;52.136;4.500;2022-09-25T07:01:34;101756.78;;;11.66;89.25
72857;BME280;62742;52.136;4.500;2022-09-25T07:04:01;101755.84;;;11.76;89.32
72857;BME280;62742;52.136;4.500;2022-09-25T07:06:28;101754.03;;;11.91;88.98
72857;BME280;62742;52.136;4.500;2022-09-25T07:08:56;101757.44;;;12.05;88.87
72857;BME280;62742;52.136;4.500;2022-09-25T07:11:25;101766.09;;;12.21;88.77
72857;BME280;62742;52.136;4.500;2022-09-25T07:13:53;101757.22;;;12.36;88.34
72857;BME280;62742;52.136;4.500;2022-09-25T07:16:21;101762.19;;;12.70;87.86
72857;BME280;62742;52.136;4.500;2022-09-25T07:18:53;101763.84;;;12.80;87.04
72857;BME280;62742;52.136;4.500;2022-09-25T07:21:22;101764.72;;;12.79;87.62
72857;BME280;62742;52.136;4.500;2022-09-25T07:23:50;101771.28;;;13.25;86.13
72857;BME280;62742;52.136;4.500;2022-09-25T07:26:18;101766.72;;;13.41;82.91
72857;BME280;62742;52.136;4.500;2022-09-25T07:28:53;101769.09;;;13.61;80.42
72857;BME280;62742;52.136;4.500;2022-09-25T07:31:23;101773.28;;;13.79;80.65
72857;BME280;62742;52.136;4.500;2022-09-25T07:33:52;101771.16;;;14.58;79.11
72857;BME280;62742;52.136;4.500;2022-09-25T07:36:19;101768.44;;;14.63;77.77
72857;BME280;62742;52.136;4.500;2022-09-25T07:38:50;101767.00;;;14.44;77.04
72857;BME280;62742;52.136;4.500;2022-09-25T07:41:19;101762.38;;;14.00;77.50
72857;BME280;62742;52.136;4.500;2022-09-25T07:43:54;101754.63;;;14.46;76.74
72857;BME280;62742;52.136;4.500;2022-09-25T07:46:26;101753.50;;;15.09;76.35
72857;BME280;62742;52.136;4.500;2022-09-25T07:48:56;101752.69;;;15.47;74.81
72857;BME280;62742;52.136;4.500;2022-09-25T07:51:22;101755.91;;;15.20;73.79
72857;BME280;62742;52.136;4.500;2022-09-25T07:53:51;101751.75;;;15.50;72.26
72857;BME280;62742;52.136;4.500;2022-09-25T07:56:18;101746.63;;;15.84;70.36
72857;BME280;62742;52.136;4.500;2022-09-25T07:58:45;101751.66;;;15.95;72.82
72857;BME280;62742;52.136;4.500;2022-09-25T08:01:14;101758.06;;;15.44;69.76
72857;BME280;62742;52.136;4.500;2022-09-25T08:03:41;101750.84;;;15.09;70.05
72857;BME280;62742;52.136;4.500;2022-09-25T08:06:09;101755.03;;;15.21;71.39
72857;BME280;62742;52.136;4.500;2022-09-25T08:08:39;101749.97;;;15.08;72.28
72857;BME280;62742;52.136;4.500;2022-09-25T08:11:16;101759.94;;;15.39;68.28
72857;BME280;62742;52.136;4.500;2022-09-25T08:13:43;101763.81;;;15.23;70.54
72857;BME280;62742;52.136;4.500;2022-09-25T08:16:14;101762.69;;;15.34;71.23
72857;BME280;62742;52.136;4.500;2022-09-25T08:18:44;101767.56;;;15.55;69.56
72857;BME280;62742;52.136;4.500;2022-09-25T08:21:14;101762.59;;;15.39;68.39
72857;BME280;62742;52.136;4.500;2022-09-25T08:23:43;101767.91;;;15.39;68.97
72857;BME280;62742;52.136;4.500;2022-09-25T08:26:15;101766.91;;;15.43;67.08
72857;BME280;62742;52.136;4.500;2022-09-25T08:28:42;101765.41;;;14.86;69.58
72857;BME280;62742;52.136;4.500;2022-09-25T08:31:09;101771.66;;;14.81;70.54
72857;BME280;62742;52.136;4.500;2022-09-25T08:33:36;101759.72;;;15.05;71.22
72857;BME280;62742;52.136;4.500;2022-09-25T08:36:04;101761.81;;;15.34;70.91
72857;BME280;62742;52.136;4.500;2022-09-25T08:38:31;101762.25;;;15.56;71.72
72857;BME280;62742;52.136;4.500;2022-09-25T08:41:02;101758.53;;;15.65;69.66
72857;BME280;62742;52.136;4.500;2022-09-25T08:43:36;101759.75;;;15.48;69.46
72857;BME280;62742;52.136;4.500;2022-09-25T08:46:45;101759.16;;;15.36;66.96
72857;BME280;62742;52.136;4.500;2022-09-25T08:49:39;101755.50;;;15.40;67.65
72857;BME280;62742;52.136;4.500;2022-09-25T08:52:15;101756.09;;;15.52;68.68
72857;BME280;62742;52.136;4.500;2022-09-25T08:54:43;101756.72;;;15.65;64.76
72857;BME280;62742;52.136;4.500;2022-09-25T08:59:53;101752.75;;;16.24;67.11
72857;BME280;62742;52.136;4.500;2022-09-25T09:02:40;101754.31;;;16.67;66.69
72857;BME280;62742;52.136;4.500;2022-09-25T09:05:18;101746.78;;;16.86;63.71
72857;BME280;62742;52.136;4.500;2022-09-25T09:07:59;101744.75;;;16.94;63.83
72857;BME280;62742;52.136;4.500;2022-09-25T09:10:42;101741.34;;;17.22;63.15
72857;BME280;62742;52.136;4.500;2022-09-25T09:13:18;101738.69;;;17.22;62.96
72857;BME280;62742;52.136;4.500;2022-09-25T09:16:06;101742.34;;;17.48;59.80
72857;BME280;62742;52.136;4.500;2022-09-25T09:18:40;101735.41;;;17.42;58.83
72857;BME280;62742;52.136;4.500;2022-09-25T09:27:36;101746.00;;;17.73;59.75
72857;BME280;62742;52.136;4.500;2022-09-25T09:45:31;101743.78;;;18.43;56.50
72857;BME280;62742;52.136;4.500;2022-09-25T09:53:00;101753.91;;;17.15;58.11
72857;BME280;62742;52.136;4.500;2022-09-25T09:55:49;101748.59;;;16.82;62.10
72857;BME280;62742;52.136;4.500;2022-09-25T09:58:40;101750.94;;;17.26;56.29
72857;BME280;62742;52.136;4.500;2022-09-25T10:01:09;101744.00;;;17.52;57.02
72857;BME280;62742;52.136;4.500;2022-09-25T10:03:40;101747.09;;;17.07;56.28
72857;BME280;62742;52.136;4.500;2022-09-25T10:06:12;101745.28;;;16.74;58.11
72857;BME280;62742;52.136;4.500;2022-09-25T10:08:41;101743.28;;;16.48;57.66
72857;BME280;62742;52.136;4.500;2022-09-25T10:11:16;101735.06;;;16.93;61.58
72857;BME280;62742;52.136;4.500;2022-09-25T10:13:45;101738.63;;;16.92;60.47
72857;BME280;62742;52.136;4.500;2022-09-25T10:16:15;101740.00;;;16.73;61.22
72857;BME280;62742;52.136;4.500;2022-09-25T10:19:03;101738.63;;;16.58;57.43
72857;BME280;62742;52.136;4.500;2022-09-25T10:27:34;101748.53;;;16.51;56.15
72857;BME280;62742;52.136;4.500;2022-09-25T10:30:14;101746.09;;;16.76;58.35
72857;BME280;62742;52.136;4.500;2022-09-25T10:33:06;101736.25;;;16.47;53.81
72857;BME280;62742;52.136;4.500;2022-09-25T10:35:42;101731.63;;;16.90;56.96
72857;BME280;62742;52.136;4.500;2022-09-25T10:38:42;101725.91;;;17.04;56.79
72857;BME280;62742;52.136;4.500;2022-09-25T10:41:15;101730.97;;;17.13;57.77
72857;BME280;62742;52.136;4.500;2022-09-25T10:43:58;101716.16;;;17.04;59.09
72857;BME280;62742;52.136;4.500;2022-09-25T10:46:35;101722.59;;;16.95;60.78
72857;BME280;62742;52.136;4.500;2022-09-25T10:49:24;101721.59;;;16.99;59.91
72857;BME280;62742;52.136;4.500;2022-09-25T10:52:12;101721.81;;;17.23;57.22
72857;BME280;62742;52.136;4.500;2022-09-25T10:54:40;101719.69;;;17.05;57.06
72857;BME280;62742;52.136;4.500;2022-09-25T11:00:00;101714.78;;;17.22;60.14
72857;BME280;62742;52.136;4.500;2022-09-25T11:02:40;101714.31;;;17.37;57.22
72857;BME280;62742;52.136;4.500;2022-09-25T11:05:17;101709.03;;;18.21;58.19
72857;BME280;62742;52.136;4.500;2022-09-25T11:07:52;101719.47;;;17.72;58.91
72857;BME280;62742;52.136;4.500;2022-09-25T11:10:34;101714.25;;;17.09;58.18
72857;BME280;62742;52.136;4.500;2022-09-25T11:13:07;101710.84;;;17.93;57.42
72857;BME280;62742;52.136;4.500;2022-09-25T11:15:47;101708.38;;;18.41;56.14
72857;BME280;62742;52.136;4.500;2022-09-25T11:18:37;101689.84;;;18.63;58.66
72857;BME280;62742;52.136;4.500;2022-09-25T11:21:24;101688.69;;;18.70;55.72
72857;BME280;62742;52.136;4.500;2022-09-25T11:24:13;101691.84;;;18.81;54.81
72857;BME280;62742;52.136;4.500;2022-09-25T11:27:10;101695.66;;;18.99;54.42
72857;BME280;62742;52.136;4.500;2022-09-25T11:29:49;101687.03;;;18.93;51.90
72857;BME280;62742;52.136;4.500;2022-09-25T11:32:33;101685.41;;;19.12;53.69
72857;BME280;62742;52.136;4.500;2022-09-25T11:35:21;101691.53;;;19.14;50.13
72857;BME280;62742;52.136;4.500;2022-09-25T11:41:47;101681.13;;;19.08;50.26
72857;BME280;62742;52.136;4.500;2022-09-25T11:44:52;101683.97;;;18.78;51.11
72857;BME280;62742;52.136;4.500;2022-09-25T11:47:39;101682.41;;;18.73;49.84
72857;BME280;62742;52.136;4.500;2022-09-25T11:50:19;101685.22;;;18.18;50.13
72857;BME280;62742;52.136;4.500;2022-09-25T12:01:25;101668.91;;;19.02;51.92
72857;BME280;62742;52.136;4.500;2022-09-25T12:04:13;101668.31;;;19.18;52.68
72857;BME280;62742;52.136;4.500;2022-09-25T12:10:31;101664.16;;;19.11;51.28
72857;BME280;62742;52.136;4.500;2022-09-25T12:13:56;101675.78;;;18.34;54.31
72857;BME280;62742;52.136;4.500;2022-09-25T12:16:40;101658.38;;;17.99;54.91
72857;BME280;62742;52.136;4.500;2022-09-25T12:19:32;101655.72;;;18.24;54.62
72857;BME280;62742;52.136;4.500;2022-09-25T12:22:23;101657.19;;;18.07;55.17
72857;BME280;62742;52.136;4.500;2022-09-25T12:31:57;101650.13;;;18.06;54.53
72857;BME280;62742;52.136;4.500;2022-09-25T12:34:38;101650.16;;;18.31;57.82
72857;BME280;62742;52.136;4.500;2022-09-25T12:40:25;101654.38;;;17.84;59.06
72857;BME280;62742;52.136;4.500;2022-09-25T12:43:11;101663.03;;;17.62;58.61
72857;BME280;62742;52.136;4.500;2022-09-25T12:45:50;101655.19;;;17.86;58.97
72857;BME280;62742;52.136;4.500;2022-09-25T12:48:37;101647.81;;;17.67;60.10
72857;BME280;62742;52.136;4.500;2022-09-25T12:51:16;101641.75;;;17.92;57.04
72857;BME280;62742;52.136;4.500;2022-09-25T12:53:51;101645.25;;;17.64;56.83
72857;BME280;62742;52.136;4.500;2022-09-25T12:56:23;101641.88;;;17.59;57.14
72857;BME280;62742;52.136;4.500;2022-09-25T12:59:36;101636.59;;;17.86;53.97
72857;BME280;62742;52.136;4.500;2022-09-25T13:05:22;101624.09;;;17.89;54.60
72857;BME280;62742;52.136;4.500;2022-09-25T13:11:01;101631.69;;;17.73;54.59
72857;BME280;62742;52.136;4.500;2022-09-25T13:13:41;101629.47;;;17.88;55.89
72857;BME280;62742;52.136;4.500;2022-09-25T13:16:13;101617.75;;;18.19;55.50
72857;BME280;62742;52.136;4.500;2022-09-25T13:19:07;101618.53;;;18.22;56.83
72857;BME280;62742;52.136;4.500;2022-09-25T13:21:40;101617.41;;;18.29;54.98
72857;BME280;62742;52.136;4.500;2022-09-25T13:24:13;101616.31;;;18.60;53.40
72857;BME280;62742;52.136;4.500;2022-09-25T13:26:46;101607.59;;;18.79;53.20
72857;BME280;62742;52.136;4.500;2022-09-25T13:29:36;101614.06;;;18.97;52.86
72857;BME280;62742;52.136;4.500;2022-09-25T13:32:18;101604.97;;;19.02;50.22
72857;BME280;62742;52.136;4.500;2022-09-25T13:34:55;101614.75;;;18.29;51.32
72857;BME280;62742;52.136;4.500;2022-09-25T13:37:32;101600.28;;;18.62;52.91
72857;BME280;62742;52.136;4.500;2022-09-25T13:40:18;101605.28;;;18.69;53.17
72857;BME280;62742;52.136;4.500;2022-09-25T13:43:20;101604.50;;;19.37;52.37
72857;BME280;62742;52.136;4.500;2022-09-25T13:46:22;101596.81;;;19.07;51.58
72857;BME280;62742;52.136;4.500;2022-09-25T13:48:50;101587.88;;;19.52;52.90
72857;BME280;62742;52.136;4.500;2022-09-25T13:56:27;101589.91;;;19.68;51.44
72857;BME280;62742;52.136;4.500;2022-09-25T14:04:22;101580.72;;;20.17;47.69
72857;BME280;62742;52.136;4.500;2022-09-25T14:06:55;101579.25;;;20.70;49.00
72857;BME280;62742;52.136;4.500;2022-09-25T14:09:31;101573.41;;;20.42;48.26
72857;BME280;62742;52.136;4.500;2022-09-25T14:17:15;101583.88;;;18.24;57.56
72857;BME280;62742;52.136;4.500;2022-09-25T14:19:45;101576.94;;;18.45;56.43
72857;BME280;62742;52.136;4.500;2022-09-25T14:22:30;101584.31;;;18.11;57.33
72857;BME280;62742;52.136;4.500;2022-09-25T14:25:01;101585.75;;;18.22;56.39
72857;BME280;62742;52.136;4.500;2022-09-25T14:27:27;101588.22;;;18.01;57.36
72857;BME280;62742;52.136;4.500;2022-09-25T14:30:10;101588.81;;;17.83;58.22
72857;BME280;62742;52.136;4.500;2022-09-25T14:42:39;101568.16;;;17.92;62.20
72857;BME280;62742;52.136;4.500;2022-09-25T14:47:57;101565.34;;;17.97;61.84
72857;BME280;62742;52.136;4.500;2022-09-25T14:50:34;101565.31;;;18.22;62.42
72857;BME280;62742;52.136;4.500;2022-09-25T14:53:12;101558.59;;;17.87;60.64
72857;BME280;62742;52.136;4.500;2022-09-25T14:55:49;101548.09;;;17.82;59.99
72857;BME280;62742;52.136;4.500;2022-09-25T14:58:26;101561.03;;;17.66;61.63
72857;BME280;62742;52.136;4.500;2022-09-25T15:01:30;101550.03;;;18.04;59.90
72857;BME280;62742;52.136;4.500;2022-09-25T15:06:35;101542.91;;;18.04;61.00
72857;BME280;62742;52.136;4.500;2022-09-25T15:09:29;101547.59;;;18.46;57.79
72857;BME280;62742;52.136;4.500;2022-09-25T15:12:19;101547.63;;;18.21;59.38
72857;BME280;62742;52.136;4.500;2022-09-25T15:15:04;101544.09;;;18.44;58.92
72857;BME280;62742;52.136;4.500;2022-09-25T15:18:00;101542.84;;;18.55;59.11
72857;BME280;62742;52.136;4.500;2022-09-25T15:20:30;101536.81;;;18.49;59.73
72857;BME280;62742;52.136;4.500;2022-09-25T15:23:03;101536.28;;;18.16;60.96
72857;BME280;62742;52.136;4.500;2022-09-25T15:25:41;101537.66;;;18.03;57.88
72857;BME280;62742;52.136;4.500;2022-09-25T15:28:14;101536.91;;;17.99;60.90
72857;BME280;62742;52.136;4.500;2022-09-25T15:30:50;101539.78;;;18.42;58.52